Time;durP1;ratioP1;P1;durP2;ratioP2;P2;SDS_P1;SDS_P2;PMS_P1;PMS_P2;Temp;Humidity;BMP_temperature;BMP_pressure;BME280_temperature;BME280_humidity;BME280_pressure;Samples;Min_cycle;Max_cycle;Signal;HPM_P1;HPM_P2
2022/09/13 00:02:12;;;;;;;11.23;6.03;;;18.30;99.90;;;;;;6212003;23;20020;-87
2022/09/13 00:04:43;;;;;;;11.90;6.10;;;18.30;99.90;;;;;;6210958;23;20017;-90
2022/09/13 00:07:09;;;;;;;10.15;5.97;;;18.30;99.90;;;;;;6185732;23;20331;-90
2022/09/13 00:09:36;;;;;;;12.07;6.60;;;18.30;99.90;;;;;;6185938;23;20031;-88
2022/09/13 00:12:01;;;;;;;12.85;6.50;;;18.30;99.90;;;;;;6210932;23;20020;-88
2022/09/13 00:14:27;;;;;;;13.27;6.78;;;18.30;99.90;;;;;;6186105;23;20048;-88
2022/09/13 00:16:53;;;;;;;10.50;6.28;;;18.30;99.90;;;;;;6210905;23;20021;-91
2022/09/13 00:19:18;;;;;;;12.00;6.35;;;18.30;99.90;;;;;;6186050;23;20314;-87
2022/09/13 00:21:44;;;;;;;12.73;5.47;;;18.20;99.90;;;;;;6161395;23;20409;-88
2022/09/13 00:24:10;;;;;;;10.68;5.47;;;18.30;99.90;;;;;;6211231;23;20021;-89
2022/09/13 00:26:35;;;;;;;9.82;5.40;;;18.20;99.90;;;;;;6185945;23;20347;-89
2022/09/13 00:29:01;;;;;;;8.20;5.35;;;18.20;99.90;;;;;;6211249;23;20310;-87
2022/09/13 00:31:28;;;;;;;9.10;4.80;;;18.20;99.90;;;;;;6210590;23;20024;-87
2022/09/13 00:33:54;;;;;;;9.57;5.07;;;18.20;99.90;;;;;;6210846;23;20021;-89
2022/09/13 00:36:20;;;;;;;10.00;5.30;;;18.10;99.90;;;;;;6210642;23;20442;-90
2022/09/13 00:38:46;;;;;;;10.40;4.75;;;18.20;99.90;;;;;;6210603;23;20153;-87
2022/09/13 00:41:16;;;;;;;9.05;4.65;;;18.10;99.90;;;;;;6185656;23;20052;-90
2022/09/13 00:43:48;;;;;;;9.05;5.35;;;18.10;99.90;;;;;;6212222;23;20017;-89
2022/09/13 00:46:23;;;;;;;9.05;4.57;;;18.10;99.90;;;;;;6210866;23;20139;-89
2022/09/13 00:48:51;;;;;;;9.27;4.95;;;18.10;99.90;;;;;;6210838;23;20016;-93
2022/09/13 00:51:17;;;;;;;9.10;5.22;;;18.10;99.90;;;;;;6210724;23;20027;-92
2022/09/13 00:53:48;;;;;;;10.48;5.13;;;18.10;99.90;;;;;;6212173;23;20012;-87
2022/09/13 00:56:36;;;;;;;9.75;4.38;;;18.10;99.90;;;;;;6212525;23;20020;-91
2022/09/13 00:59:11;;;;;;;8.73;4.68;;;18.10;99.90;;;;;;6185664;23;20047;-88
2022/09/13 01:01:44;;;;;;;9.77;4.72;;;18.10;99.90;;;;;;6211171;23;20017;-90
2022/09/13 01:04:29;;;;;;;10.30;4.63;;;18.00;99.90;;;;;;6186712;23;20013;-89
2022/09/13 01:06:59;;;;;;;9.88;5.00;;;18.00;99.90;;;;;;6185909;23;20016;-92
2022/09/13 01:09:26;;;;;;;10.48;5.50;;;18.00;99.90;;;;;;6186173;22;20017;-89
2022/09/13 01:12:38;;;;;;;9.68;5.00;;;18.00;99.90;;;;;;6214007;23;20016;-89
2022/09/13 01:15:05;;;;;;;11.18;6.07;;;18.00;99.90;;;;;;6072699;23;20029;-86
2022/09/13 01:17:32;;;;;;;10.68;5.50;;;18.00;99.90;;;;;;6095920;23;20021;-89
2022/09/13 01:20:00;;;;;;;13.63;7.03;;;18.00;99.90;;;;;;6130969;23;20026;-88
2022/09/13 01:22:37;;;;;;;11.88;6.03;;;18.00;99.90;;;;;;6185115;23;20017;-87
2022/09/13 01:25:34;;;;;;;12.32;6.30;;;17.90;99.90;;;;;;6211877;23;20075;-91
2022/09/13 01:28:55;;;;;;;10.90;5.78;;;18.00;99.90;;;;;;6185984;23;20028;-90
2022/09/13 01:31:51;;;;;;;12.88;6.65;;;17.90;99.90;;;;;;6210597;23;20021;-90
2022/09/13 01:34:49;;;;;;;11.60;5.25;;;17.90;99.90;;;;;;6185836;23;20013;-92
2022/09/13 01:37:37;;;;;;;10.88;5.35;;;17.90;99.90;;;;;;6185371;23;20479;-87
2022/09/13 01:40:12;;;;;;;12.68;5.28;;;17.90;99.90;;;;;;6210074;23;20052;-88
2022/09/13 01:43:09;;;;;;;9.82;5.10;;;17.90;99.90;;;;;;6212014;23;20065;-92
2022/09/13 01:45:44;;;;;;;9.80;4.85;;;17.90;99.90;;;;;;6210504;23;20021;-92
2022/09/13 01:48:28;;;;;;;8.65;4.30;;;17.90;99.90;;;;;;6187659;23;20099;-93
2022/09/13 01:51:31;;;;;;;8.13;4.45;;;17.90;99.90;;;;;;6220813;23;20069;-87
2022/09/13 01:54:15;;;;;;;8.00;4.07;;;17.90;99.90;;;;;;6217874;23;20076;-90
2022/09/13 01:56:54;;;;;;;7.90;4.60;;;17.90;99.90;;;;;;6185537;23;20020;-87
2022/09/13 01:59:28;;;;;;;7.50;4.18;;;17.90;99.90;;;;;;6210435;23;20099;-90
2022/09/13 02:02:01;;;;;;;9.07;4.13;;;17.90;99.90;;;;;;6211770;23;20345;-87
2022/09/13 02:04:35;;;;;;;7.43;3.95;;;17.90;99.90;;;;;;6210690;23;20020;-91
2022/09/13 02:07:03;;;;;;;7.15;4.35;;;17.90;99.90;;;;;;6210316;23;20021;-90
2022/09/13 02:09:33;;;;;;;8.13;4.05;;;17.90;99.90;;;;;;6184577;23;20023;-88
2022/09/13 02:12:19;;;;;;;7.75;4.20;;;18.00;99.90;;;;;;6186163;23;20077;-92
2022/09/13 02:14:52;;;;;;;7.38;3.78;;;18.00;99.90;;;;;;6185416;23;20065;-91
2022/09/13 02:17:22;;;;;;;8.05;4.28;;;17.90;99.90;;;;;;6211698;23;20016;-92
2022/09/13 02:19:58;;;;;;;7.43;4.20;;;18.00;99.90;;;;;;6211735;23;20021;-92
2022/09/13 02:22:31;;;;;;;9.07;4.35;;;17.90;99.90;;;;;;6185196;23;20021;-90
2022/09/13 02:25:04;;;;;;;9.35;4.43;;;17.90;99.90;;;;;;6210453;23;20028;-90
2022/09/13 02:27:34;;;;;;;9.27;4.38;;;18.00;99.90;;;;;;6210537;23;20012;-94
2022/09/13 02:30:07;;;;;;;9.43;4.40;;;18.00;99.90;;;;;;6221720;23;20028;-91
2022/09/13 02:32:55;;;;;;;8.93;4.30;;;18.00;99.90;;;;;;6213975;23;20017;-89
2022/09/13 02:35:34;;;;;;;8.32;4.70;;;18.00;99.90;;;;;;6184493;23;20021;-86
2022/09/13 02:38:16;;;;;;;8.10;4.55;;;18.00;99.90;;;;;;6184527;23;20056;-89
2022/09/13 02:40:48;;;;;;;10.00;4.72;;;18.00;99.90;;;;;;6209859;23;20050;-90
2022/09/13 02:43:24;;;;;;;11.23;5.75;;;18.00;99.90;;;;;;6185087;23;20471;-90
2022/09/13 02:46:00;;;;;;;8.90;4.63;;;18.00;99.90;;;;;;6185117;22;20013;-87
2022/09/13 02:49:23;;;;;;;11.25;4.95;;;18.00;99.90;;;;;;6209997;23;20100;-90
2022/09/13 02:52:30;;;;;;;8.55;4.65;;;18.00;99.90;;;;;;6071328;23;20463;-91
2022/09/13 02:55:17;;;;;;;8.13;4.63;;;18.00;99.90;;;;;;6071150;23;20018;-87
2022/09/13 02:58:16;;;;;;;8.45;4.85;;;18.10;99.90;;;;;;6070790;23;20029;-89
2022/09/13 03:00:43;;;;;;;8.35;4.40;;;18.00;99.90;;;;;;6205576;23;20046;-89
2022/09/13 03:03:17;;;;;;;6.03;2.72;;;18.00;99.90;;;;;;6209825;23;20050;-90
2022/09/13 03:05:43;;;;;;;5.10;2.38;;;18.00;99.90;;;;;;6160309;23;20023;-90
2022/09/13 03:08:12;;;;;;;3.55;1.30;;;18.00;99.90;;;;;;6211308;23;20013;-90
2022/09/13 03:11:17;;;;;;;3.85;1.30;;;18.00;99.90;;;;;;6184893;23;20012;-90
2022/09/13 03:14:04;;;;;;;2.25;0.70;;;18.00;99.90;;;;;;6209064;23;20017;-91
2022/09/13 03:16:51;;;;;;;2.53;0.90;;;17.90;99.90;;;;;;6209774;23;20024;-90
2022/09/13 03:19:28;;;;;;;1.42;0.55;;;17.90;99.90;;;;;;6209950;23;20024;-88
2022/09/13 03:22:05;;;;;;;2.20;0.80;;;17.90;99.90;;;;;;6210987;23;20017;-90
2022/09/13 03:25:14;;;;;;;1.40;0.70;;;17.90;99.90;;;;;;6186286;23;20020;-88
2022/09/13 03:27:39;;;;;;;;;;;17.90;99.90;;;;;;6185946;23;20016;-87
2022/09/13 03:30:12;;;;;;;2.83;0.70;;;17.90;99.90;;;;;;6212348;23;20406;-87
2022/09/13 03:32:43;;;;;;;2.15;0.60;;;17.80;99.90;;;;;;6186007;23;20024;-91
2022/09/13 03:35:31;;;;;;;1.10;0.50;;;17.80;99.90;;;;;;6185972;23;20063;-90
2022/09/13 03:38:12;;;;;;;1.63;0.57;;;17.80;99.90;;;;;;6210907;23;20075;-89
2022/09/13 03:40:40;;;;;;;1.90;0.73;;;17.80;99.90;;;;;;6210307;23;20403;-87
2022/09/13 03:43:16;;;;;;;3.28;0.60;;;17.80;99.90;;;;;;6185556;23;20021;-87
2022/09/13 03:45:48;;;;;;;1.65;0.68;;;17.80;99.90;;;;;;6185499;23;20065;-88
2022/09/13 03:48:16;;;;;;;2.30;1.00;;;17.80;99.90;;;;;;6212245;23;20021;-88
2022/09/13 03:50:45;;;;;;;1.55;0.60;;;17.80;99.90;;;;;;6185325;23;20013;-89
2022/09/13 03:53:29;;;;;;;1.42;0.52;;;17.80;99.90;;;;;;6186569;23;20075;-90
2022/09/13 03:55:55;;;;;;;1.10;0.57;;;17.80;99.90;;;;;;6186233;23;20509;-90
2022/09/13 03:58:30;;;;;;;2.97;0.93;;;17.80;99.90;;;;;;6210658;23;20063;-89
2022/09/13 04:00:56;;;;;;;1.52;0.70;;;17.80;99.90;;;;;;6186039;23;20017;-88
2022/09/13 04:03:22;;;;;;;1.00;0.50;;;17.80;99.90;;;;;;6212147;23;20448;-85
2022/09/13 04:05:49;;;;;;;1.35;0.57;;;17.80;99.90;;;;;;6211672;23;20017;-85
2022/09/13 04:08:14;;;;;;;1.75;0.70;;;17.80;99.90;;;;;;6211545;23;20024;-85
2022/09/13 04:10:40;;;;;;;1.40;0.70;;;17.80;99.90;;;;;;6210267;23;20054;-87
2022/09/13 04:13:54;;;;;;;1.30;0.60;;;17.80;99.90;;;;;;6212000;23;20070;-86
2022/09/13 04:16:35;;;;;;;1.10;0.60;;;17.80;99.90;;;;;;6185963;23;20017;-85
2022/09/13 04:19:00;;;;;;;1.90;0.90;;;17.70;99.90;;;;;;6185396;23;20027;-86
2022/09/13 04:21:26;;;;;;;1.55;0.70;;;17.80;99.90;;;;;;6185315;23;20052;-86
2022/09/13 04:23:52;;;;;;;1.42;0.52;;;17.70;99.90;;;;;;6212014;23;20020;-85
2022/09/13 04:26:18;;;;;;;1.85;0.65;;;17.70;99.90;;;;;;6210330;23;20342;-87
2022/09/13 04:28:45;;;;;;;2.90;1.00;;;17.80;99.90;;;;;;6186134;23;20055;-87
2022/09/13 04:31:17;;;;;;;1.88;0.52;;;17.70;99.90;;;;;;6185363;23;20019;-86
2022/09/13 04:33:43;;;;;;;1.83;0.60;;;17.70;99.90;;;;;;6184924;23;20020;-85
2022/09/13 04:36:09;;;;;;;0.95;0.40;;;17.70;99.90;;;;;;6160959;23;20099;-87
2022/09/13 04:38:36;;;;;;;1.55;0.35;;;17.70;99.90;;;;;;6187836;23;20067;-86
2022/09/13 04:41:02;;;;;;;0.68;0.30;;;17.70;99.90;;;;;;6191449;23;20016;-84
2022/09/13 04:43:28;;;;;;;0.88;0.30;;;17.70;99.90;;;;;;6187217;23;20027;-88
2022/09/13 04:45:54;;;;;;;1.35;0.30;;;17.70;99.90;;;;;;6210464;23;20012;-85
2022/09/13 04:48:19;;;;;;;2.72;0.40;;;17.70;99.90;;;;;;6211952;23;20349;-88
2022/09/13 04:50:46;;;;;;;0.70;0.38;;;17.70;99.90;;;;;;6210375;23;20469;-87
2022/09/13 04:53:12;;;;;;;1.23;0.50;;;17.70;99.90;;;;;;6210222;23;20028;-87
2022/09/13 04:55:37;;;;;;;0.50;0.30;;;17.70;99.90;;;;;;6210242;23;20020;-88
2022/09/13 04:58:06;;;;;;;0.52;0.30;;;17.70;99.90;;;;;;6185601;23;20438;-86
2022/09/13 05:00:32;;;;;;;1.38;0.40;;;17.80;99.90;;;;;;6185201;23;20024;-86
2022/09/13 05:02:58;;;;;;;0.80;0.30;;;17.70;99.90;;;;;;6185299;23;20020;-89
2022/09/13 05:05:24;;;;;;;1.33;0.60;;;17.80;99.90;;;;;;6184217;23;20048;-87
2022/09/13 05:07:51;;;;;;;1.25;0.50;;;17.80;99.90;;;;;;6183214;23;20013;-86
2022/09/13 05:10:17;;;;;;;1.35;0.38;;;17.70;99.90;;;;;;6208494;23;20020;-86
2022/09/13 05:12:43;;;;;;;;;;;17.70;99.90;;;;;;6212024;23;20061;-87
2022/09/13 05:15:10;;;;;;;0.65;0.30;;;17.70;99.90;;;;;;6214393;23;19919;-86
2022/09/13 05:17:37;;;;;;;0.90;0.40;;;17.80;99.90;;;;;;6216760;23;20023;-88
2022/09/13 05:20:04;;;;;;;1.92;0.52;;;17.70;99.90;;;;;;6185984;23;20077;-88
2022/09/13 05:22:30;;;;;;;0.80;0.45;;;17.70;99.90;;;;;;6185525;23;20392;-88
2022/09/13 05:24:56;;;;;;;1.90;0.50;;;17.80;99.90;;;;;;6210080;23;20020;-89
2022/09/13 05:27:22;;;;;;;1.58;0.77;;;17.70;99.90;;;;;;6210238;23;20048;-90
2022/09/13 05:29:47;;;;;;;1.55;0.60;;;17.70;99.90;;;;;;6187511;23;20021;-90
2022/09/13 05:32:13;;;;;;;1.63;0.70;;;17.70;99.90;;;;;;6184546;23;20166;-88
2022/09/13 05:34:39;;;;;;;1.88;0.70;;;17.70;99.90;;;;;;6184472;23;20121;-88
2022/09/13 05:37:05;;;;;;;1.73;0.50;;;17.70;99.90;;;;;;6211662;23;20021;-89
2022/09/13 05:39:31;;;;;;;3.13;0.50;;;17.70;99.90;;;;;;6208962;23;20465;-89
2022/09/13 05:41:57;;;;;;;1.52;0.40;;;17.70;99.90;;;;;;6185285;23;20017;-89
2022/09/13 05:44:23;;;;;;;3.22;0.63;;;17.60;99.90;;;;;;6185384;23;20060;-88
2022/09/13 05:46:49;;;;;;;1.30;0.50;;;17.70;99.90;;;;;;6210548;23;20024;-90
2022/09/13 05:49:15;;;;;;;1.23;0.40;;;17.70;99.90;;;;;;6211647;23;20020;-87
2022/09/13 05:51:40;;;;;;;1.95;0.40;;;17.60;99.90;;;;;;6210253;23;20015;-88
2022/09/13 05:54:07;;;;;;;2.15;0.52;;;17.70;99.90;;;;;;6211742;23;20024;-89
2022/09/13 05:56:32;;;;;;;1.10;0.52;;;17.70;99.90;;;;;;6210683;23;20433;-90
2022/09/13 05:58:58;;;;;;;3.30;0.60;;;17.70;99.90;;;;;;6210222;23;20016;-91
2022/09/13 06:01:26;;;;;;;2.53;0.50;;;17.70;99.90;;;;;;6209811;23;20024;-91
2022/09/13 06:03:55;;;;;;;4.55;1.05;;;17.70;99.90;;;;;;6184985;23;20027;-88
2022/09/13 06:06:21;;;;;;;1.17;0.50;;;17.70;99.90;;;;;;6210042;23;20020;-90
2022/09/13 06:08:50;;;;;;;2.28;0.40;;;17.70;99.90;;;;;;6210100;23;20372;-90
2022/09/13 06:11:16;;;;;;;2.70;0.45;;;17.70;99.90;;;;;;6210536;23;20013;-90
2022/09/13 06:13:42;;;;;;;3.50;0.47;;;17.70;99.90;;;;;;6183912;23;20019;-88
2022/09/13 06:16:10;;;;;;;1.63;0.52;;;17.70;99.90;;;;;;6317077;22;20446;-90
2022/09/13 06:18:36;;;;;;;1.30;0.45;;;17.70;99.90;;;;;;6185112;23;20022;-89
2022/09/13 06:21:05;;;;;;;2.00;0.70;;;17.70;99.90;;;;;;6185125;23;20043;-90
2022/09/13 06:23:31;;;;;;;1.50;0.40;;;17.70;99.90;;;;;;6184889;23;20530;-89
2022/09/13 06:26:09;;;;;;;2.65;1.27;;;17.70;99.90;;;;;;6184897;22;20104;-88
2022/09/13 06:28:35;;;;;;;0.70;0.40;;;17.80;99.90;;;;;;6184832;23;20017;-89
2022/09/13 06:31:13;;;;;;;3.15;0.52;;;17.80;99.90;;;;;;6185381;23;20027;-89
2022/09/13 06:33:41;;;;;;;1.25;0.47;;;17.80;99.90;;;;;;6210132;23;20016;-90
2022/09/13 06:36:09;;;;;;;1.15;0.43;;;17.80;99.90;;;;;;6211504;23;20364;-89
2022/09/13 06:38:38;;;;;;;1.33;0.50;;;17.80;99.90;;;;;;6209912;23;20020;-89
2022/09/13 06:41:08;;;;;;;2.00;0.40;;;17.80;99.90;;;;;;6184801;23;20100;-90
2022/09/13 06:43:34;;;;;;;1.02;0.30;;;17.80;99.90;;;;;;6185036;22;20020;-88
2022/09/13 06:46:02;;;;;;;4.38;1.33;;;17.90;99.90;;;;;;6209956;23;20028;-89
2022/09/13 06:48:37;;;;;;;1.15;0.30;;;17.90;99.90;;;;;;6209677;23;20023;-90
2022/09/13 06:51:06;;;;;;;1.75;0.40;;;17.90;99.90;;;;;;6185230;23;20025;-88
2022/09/13 06:53:33;;;;;;;1.02;0.30;;;17.90;99.90;;;;;;6316047;22;20059;-89
2022/09/13 06:56:15;;;;;;;3.00;0.40;;;17.90;99.90;;;;;;6209273;23;20021;-88
2022/09/13 06:58:43;;;;;;;3.65;0.38;;;17.90;99.90;;;;;;6184681;22;20021;-89
2022/09/13 07:01:15;;;;;;;1.70;0.50;;;18.00;99.90;;;;;;6184496;23;20442;-89
2022/09/13 07:03:46;;;;;;;0.40;0.30;;;18.00;99.90;;;;;;6209581;23;20031;-88
2022/09/13 07:06:14;;;;;;;2.22;0.40;;;18.10;99.90;;;;;;6209144;23;20021;-88
2022/09/13 07:08:41;;;;;;;1.48;0.50;;;18.10;99.90;;;;;;6209632;23;20025;-89
2022/09/13 07:11:08;;;;;;;1.63;0.30;;;18.10;99.90;;;;;;6209434;23;20024;-88
2022/09/13 07:13:34;;;;;;;1.38;0.20;;;18.20;99.90;;;;;;6209515;23;20088;-88
2022/09/13 07:16:09;;;;;;;0.98;0.20;;;18.20;99.90;;;;;;6209363;23;20071;-88
2022/09/13 07:18:35;;;;;;;0.90;0.50;;;18.20;99.90;;;;;;6211110;23;20036;-89
2022/09/13 07:21:04;;;;;;;1.55;0.40;;;18.20;99.90;;;;;;6209404;23;20021;-88
2022/09/13 07:23:31;;;;;;;0.45;0.20;;;18.10;99.90;;;;;;6209506;23;20017;-88
2022/09/13 07:26:00;;;;;;;0.65;0.25;;;18.10;99.90;;;;;;6184533;23;20049;-88
2022/09/13 07:28:35;;;;;;;1.08;0.22;;;18.10;99.90;;;;;;6211117;23;20070;-89
2022/09/13 07:31:22;;;;;;;1.70;0.60;;;18.10;99.90;;;;;;6209206;23;20414;-87
2022/09/13 07:33:54;;;;;;;1.23;0.30;;;18.00;99.90;;;;;;6184207;23;20017;-88
2022/09/13 07:36:20;;;;;;;0.98;0.32;;;18.10;99.90;;;;;;6209055;23;20024;-87
2022/09/13 07:38:47;;;;;;;0.40;0.20;;;18.00;99.90;;;;;;6209177;23;20082;-90
2022/09/13 07:41:14;;;;;;;0.55;0.20;;;18.10;99.90;;;;;;6209108;23;20023;-89
2022/09/13 07:43:41;;;;;;;2.38;0.40;;;18.10;99.90;;;;;;6184027;23;20153;-88
2022/09/13 07:46:08;;;;;;;;;;;18.20;99.90;;;;;;6209391;23;20349;-87
2022/09/13 07:48:37;;;;;;;1.13;0.35;;;18.20;99.90;;;;;;6208936;23;19924;-89
2022/09/13 07:51:14;;;;;;;2.67;0.50;;;18.20;99.90;;;;;;6183862;23;20099;-88
2022/09/13 07:53:42;;;;;;;2.22;0.20;;;18.30;99.90;;;;;;6184173;23;20019;-88
2022/09/13 07:56:10;;;;;;;1.40;0.25;;;18.30;99.90;;;;;;6209033;23;20016;-89
2022/09/13 07:58:38;;;;;;;1.30;0.30;;;18.30;99.90;;;;;;6183734;23;20021;-89
2022/09/13 08:01:22;;;;;;;0.55;0.30;;;18.20;99.90;;;;;;6184202;23;20027;-88
2022/09/13 08:03:55;;;;;;;0.30;0.20;;;18.20;99.90;;;;;;6209216;23;20020;-89
2022/09/13 08:06:22;;;;;;;1.15;0.30;;;18.20;99.90;;;;;;6186870;23;20024;-89
2022/09/13 08:08:47;;;;;;;1.33;0.30;;;18.20;99.90;;;;;;6169804;23;20042;-85
2022/09/13 08:11:20;;;;;;;1.13;0.35;;;18.20;99.90;;;;;;6195057;23;20020;-89
2022/09/13 08:13:47;;;;;;;3.10;0.20;;;18.30;99.90;;;;;;6186859;23;20028;-87
2022/09/13 08:16:14;;;;;;;1.08;0.20;;;18.30;99.90;;;;;;6185334;23;20091;-88
2022/09/13 08:18:48;;;;;;;2.95;0.30;;;18.30;99.90;;;;;;6211817;23;20050;-88
2022/09/13 08:21:14;;;;;;;1.45;0.20;;;18.30;99.90;;;;;;6185394;23;20464;-90
2022/09/13 08:23:41;;;;;;;0.65;0.10;;;18.40;99.90;;;;;;6185435;23;20433;-91
2022/09/13 08:26:09;;;;;;;1.05;0.20;;;18.40;99.90;;;;;;6185397;23;20050;-89
2022/09/13 08:28:36;;;;;;;1.70;0.20;;;18.40;99.90;;;;;;6185480;23;20017;-87
2022/09/13 08:31:04;;;;;;;2.00;0.17;;;18.40;99.90;;;;;;6210535;23;20021;-88
2022/09/13 08:33:30;;;;;;;1.13;0.20;;;18.40;99.90;;;;;;6210333;23;20020;-91
2022/09/13 08:35:57;;;;;;;2.13;0.43;;;18.40;99.90;;;;;;6185282;23;20398;-89
2022/09/13 08:38:22;;;;;;;3.72;0.30;;;18.40;99.90;;;;;;6185161;23;20052;-88
2022/09/13 08:41:13;;;;;;;1.75;0.10;;;18.50;99.90;;;;;;6185432;23;20024;-88
2022/09/13 08:43:53;;;;;;;0.88;0.43;;;18.50;99.90;;;;;;6210143;23;20023;-89
2022/09/13 08:46:25;;;;;;;1.52;0.40;;;18.60;99.90;;;;;;6195552;23;20024;-90
2022/09/13 08:48:53;;;;;;;2.55;0.30;;;18.60;99.90;;;;;;6225256;23;20012;-89
2022/09/13 08:51:31;;;;;;;1.33;0.38;;;18.60;99.90;;;;;;6214662;23;20016;-88
2022/09/13 08:53:59;;;;;;;1.92;0.20;;;18.60;99.90;;;;;;6210527;23;20016;-89
2022/09/13 08:56:50;;;;;;;0.82;0.10;;;18.50;99.90;;;;;;6185328;23;20070;-89
2022/09/13 08:59:50;;;;;;;0.52;0.17;;;18.50;99.90;;;;;;6211625;23;20020;-88
2022/09/13 09:02:53;;;;;;;1.60;0.35;;;18.50;99.90;;;;;;6185129;23;20319;-88
2022/09/13 09:05:26;;;;;;;2.55;0.30;;;18.60;99.90;;;;;;6185155;23;20016;-88
2022/09/13 09:08:14;;;;;;;1.48;0.25;;;18.60;99.90;;;;;;6185098;23;20024;-89
2022/09/13 09:10:49;;;;;;;0.70;0.20;;;18.60;99.90;;;;;;6211697;23;20013;-90
2022/09/13 09:13:37;;;;;;;1.52;0.20;;;18.60;99.90;;;;;;6210139;23;20020;-90
2022/09/13 09:16:21;;;;;;;;;;;18.70;99.90;;;;;;6210742;23;20051;-87
2022/09/13 09:18:48;;;;;;;1.92;0.17;;;18.70;99.90;;;;;;6209549;23;19919;-88
2022/09/13 09:21:18;;;;;;;5.35;0.35;;;18.70;99.90;;;;;;6185126;23;20009;-88
2022/09/13 09:23:46;;;;;;;1.77;0.30;;;18.70;99.90;;;;;;6210144;23;20027;-89
2022/09/13 09:26:28;;;;;;;1.00;0.30;;;18.70;99.90;;;;;;6185299;23;20150;-88
2022/09/13 09:28:59;;;;;;;2.60;0.52;;;18.70;99.90;;;;;;6211682;23;20025;-89
2022/09/13 09:31:28;;;;;;;0.77;0.20;;;18.70;99.90;;;;;;6185438;23;20021;-88
2022/09/13 09:34:13;;;;;;;0.32;0.20;;;18.70;99.90;;;;;;6209936;23;20165;-88
2022/09/13 09:36:49;;;;;;;4.38;0.30;;;18.80;99.90;;;;;;6210100;23;20021;-89
2022/09/13 09:39:15;;;;;;;1.67;0.20;;;18.80;99.90;;;;;;6185113;23;20028;-89
2022/09/13 09:41:42;;;;;;;1.52;0.17;;;18.80;99.90;;;;;;6211707;23;20012;-89
2022/09/13 09:44:12;;;;;;;1.15;0.20;;;18.80;99.90;;;;;;6210295;23;20017;-90
2022/09/13 09:46:40;;;;;;;1.60;0.38;;;18.80;99.90;;;;;;6210207;23;20407;-88
2022/09/13 09:52:55;;;;;;;1.50;0.28;;;19.00;99.90;;;;;;6210042;22;20043;-88
2022/09/13 09:55:24;;;;;;;0.32;0.10;;;19.10;99.90;;;;;;6209986;23;20016;-88
2022/09/13 09:57:57;;;;;;;1.40;0.30;;;19.10;99.90;;;;;;6210076;23;20445;-88
2022/09/13 10:00:30;;;;;;;1.88;0.20;;;19.20;99.90;;;;;;6185039;23;20103;-88
2022/09/13 10:03:04;;;;;;;3.42;0.63;;;19.20;99.90;;;;;;6210161;23;20016;-89
2022/09/13 10:05:31;;;;;;;2.17;0.30;;;19.30;99.90;;;;;;6210221;23;20023;-88
2022/09/13 10:08:06;;;;;;;0.57;0.20;;;19.30;99.90;;;;;;6211846;23;20095;-88
2022/09/13 10:10:33;;;;;;;1.55;0.20;;;19.30;99.90;;;;;;6185058;23;20340;-88
2022/09/13 10:12:59;;;;;;;1.75;0.30;;;19.30;99.90;;;;;;6211772;23;20031;-90
2022/09/13 10:15:32;;;;;;;;;;;19.30;99.90;;;;;;6185852;23;20046;-90
2022/09/13 10:18:15;;;;;;;0.55;0.20;;;19.30;99.90;;;;;;6185939;23;20287;-88
2022/09/13 10:20:42;;;;;;;1.13;0.30;;;19.40;99.90;;;;;;6210030;23;20019;-91
2022/09/13 10:23:18;;;;;;;2.53;0.35;;;19.50;99.90;;;;;;6209939;23;20108;-90
2022/09/13 10:26:06;;;;;;;0.25;0.15;;;19.60;99.90;;;;;;6210126;23;20453;-87
2022/09/13 10:28:35;;;;;;;0.40;0.20;;;19.70;99.90;;;;;;6210099;23;20020;-90
2022/09/13 10:31:07;;;;;;;0.50;0.20;;;19.60;99.90;;;;;;6207925;23;20438;-90
2022/09/13 10:33:41;;;;;;;1.88;0.22;;;19.60;99.90;;;;;;6184970;23;20056;-89
2022/09/13 10:36:17;;;;;;;2.35;0.55;;;19.70;99.90;;;;;;6209524;23;20507;-89
2022/09/13 10:39:00;;;;;;;2.33;0.20;;;19.70;99.90;;;;;;6209876;23;20024;-88
2022/09/13 10:41:29;;;;;;;1.95;0.20;;;19.80;99.90;;;;;;6209910;23;20017;-90
2022/09/13 10:43:59;;;;;;;2.05;0.20;;;19.80;99.90;;;;;;6209906;23;20020;-88
2022/09/13 10:46:29;;;;;;;1.85;0.30;;;19.90;99.90;;;;;;6160413;23;20446;-86
2022/09/13 10:48:55;;;;;;;2.05;0.20;;;20.00;99.90;;;;;;6185114;23;20012;-89
2022/09/13 10:51:36;;;;;;;3.50;0.20;;;20.10;99.90;;;;;;6210069;23;20017;-88
2022/09/13 10:54:19;;;;;;;0.70;0.22;;;20.20;99.90;;;;;;6185048;23;20040;-91
2022/09/13 10:56:46;;;;;;;2.20;0.30;;;20.40;99.90;;;;;;6209989;23;20020;-90
2022/09/13 10:59:23;;;;;;;0.88;0.30;;;20.50;99.90;;;;;;6210046;23;20399;-90
2022/09/13 11:02:27;;;;;;;3.75;0.30;;;20.60;99.90;;;;;;6185072;22;20077;-90
2022/09/13 11:05:08;;;;;;;1.48;0.25;;;20.60;99.90;;;;;;6149197;23;20044;-89
2022/09/13 11:08:18;;;;;;;0.68;0.20;;;20.40;99.90;;;;;;6209872;23;20074;-89
2022/09/13 11:11:01;;;;;;;1.38;0.20;;;20.60;99.90;;;;;;6184532;23;20020;-89
2022/09/13 11:13:48;;;;;;;1.25;0.40;;;20.70;99.90;;;;;;6209640;23;20058;-90
2022/09/13 11:16:32;;;;;;;;;;;20.80;99.90;;;;;;6184965;23;20023;-87
2022/09/13 11:19:18;;;;;;;3.17;0.20;;;20.90;98.40;;;;;;6184686;23;19923;-89
2022/09/13 11:21:57;;;;;;;1.65;0.30;;;21.10;99.50;;;;;;6209511;23;20517;-90
2022/09/13 11:24:42;;;;;;;0.98;0.20;;;21.00;99.90;;;;;;6209593;23;20013;-91
2022/09/13 11:27:37;;;;;;;0.80;0.10;;;20.90;99.90;;;;;;6209527;23;20079;-89
2022/09/13 11:30:19;;;;;;;0.93;0.17;;;20.90;99.90;;;;;;6184515;23;20025;-90
2022/09/13 11:33:20;;;;;;;2.35;0.38;;;20.90;99.90;;;;;;6209286;23;20020;-90
2022/09/13 11:36:19;;;;;;;1.33;0.38;;;21.00;98.90;;;;;;6209441;23;20043;-87
2022/09/13 11:38:53;;;;;;;2.67;0.30;;;21.00;99.90;;;;;;6210767;23;20031;-90
2022/09/13 11:41:27;;;;;;;2.55;0.40;;;21.00;99.90;;;;;;6210103;23;20009;-91
2022/09/13 11:44:30;;;;;;;2.58;1.15;;;21.10;99.60;;;;;;6213262;23;20341;-89
2022/09/13 11:47:20;;;;;;;2.05;0.30;;;21.20;99.60;;;;;;6185669;23;20052;-91
2022/09/13 11:50:01;;;;;;;2.13;0.68;;;21.30;99.40;;;;;;6185194;23;20039;-90
2022/09/13 11:52:43;;;;;;;2.88;0.30;;;21.30;99.30;;;;;;6185604;23;20016;-89
2022/09/13 11:55:27;;;;;;;0.47;0.13;;;21.30;99.50;;;;;;6185513;23;20017;-90
2022/09/13 11:57:56;;;;;;;4.03;0.55;;;21.30;99.70;;;;;;6185487;23;20013;-89
2022/09/13 12:00:36;;;;;;;0.75;0.30;;;21.30;99.50;;;;;;6210742;23;20142;-90
2022/09/13 12:03:26;;;;;;;0.65;0.25;;;21.40;99.20;;;;;;6185497;23;20053;-88
2022/09/13 12:05:56;;;;;;;1.08;0.30;;;21.50;99.40;;;;;;6185601;23;20031;-89
2022/09/13 12:08:29;;;;;;;0.45;0.10;;;21.60;99.50;;;;;;6211014;23;20052;-90
2022/09/13 12:11:18;;;;;;;1.27;0.20;;;21.70;99.00;;;;;;6210808;23;20020;-90
2022/09/13 12:13:51;;;;;;;3.58;0.30;;;21.70;98.80;;;;;;6211954;23;20017;-88
2022/09/13 12:16:25;;;;;;;2.10;0.30;;;21.90;99.20;;;;;;6210427;23;20450;-90
2022/09/13 12:18:56;;;;;;;2.33;0.30;;;21.90;98.70;;;;;;6185474;22;20016;-90
2022/09/13 12:21:48;;;;;;;0.65;0.20;;;21.70;98.90;;;;;;6213581;23;20025;-90
2022/09/13 12:24:23;;;;;;;0.98;0.35;;;21.40;98.20;;;;;;6214385;23;20017;-86
2022/09/13 12:27:24;;;;;;;1.38;0.20;;;21.30;98.90;;;;;;6223292;23;20021;-88
2022/09/13 12:30:10;;;;;;;2.65;0.32;;;21.20;98.40;;;;;;6074096;23;20320;-88
2022/09/13 12:32:37;;;;;;;1.40;0.28;;;21.10;99.00;;;;;;6177814;23;20021;-89
2022/09/13 12:35:08;;;;;;;1.38;0.20;;;21.20;99.10;;;;;;6185053;23;20020;-90
2022/09/13 12:37:48;;;;;;;1.35;0.50;;;21.30;98.80;;;;;;6185146;23;20052;-89
2022/09/13 12:40:44;;;;;;;1.10;0.20;;;21.30;98.60;;;;;;6210280;23;20073;-89
2022/09/13 12:43:28;;;;;;;2.00;0.35;;;21.30;98.00;;;;;;6185253;23;20023;-90
2022/09/13 12:46:12;;;;;;;1.65;0.28;;;21.20;98.50;;;;;;6211481;23;20247;-88
2022/09/13 12:48:58;;;;;;;2.00;0.55;;;21.20;98.30;;;;;;6209431;23;20047;-91
2022/09/13 12:51:49;;;;;;;1.23;0.23;;;21.00;97.80;;;;;;6184861;23;20023;-91
2022/09/13 12:54:21;;;;;;;2.08;0.30;;;20.90;97.90;;;;;;6209202;23;20252;-87
2022/09/13 12:57:08;;;;;;;1.90;0.20;;;20.90;98.20;;;;;;6211447;23;20020;-88
2022/09/13 12:59:43;;;;;;;0.25;0.10;;;20.90;97.70;;;;;;6184727;23;20028;-90
2022/09/13 13:02:30;;;;;;;3.78;0.47;;;20.80;98.00;;;;;;6212535;23;20048;-91
2022/09/13 13:05:01;;;;;;;2.08;0.30;;;20.70;97.90;;;;;;6226488;23;20021;-89
2022/09/13 13:07:28;;;;;;;1.65;0.20;;;20.70;98.20;;;;;;6218372;23;20091;-89
2022/09/13 13:09:55;;;;;;;1.38;0.30;;;20.70;98.30;;;;;;6212545;23;20024;-90
2022/09/13 13:12:37;;;;;;;0.50;0.30;;;20.70;97.90;;;;;;6210397;23;20476;-88
2022/09/13 13:15:27;;;;;;;1.73;0.57;;;20.70;97.90;;;;;;6211655;23;20095;-90
2022/09/13 13:17:54;;;;;;;3.50;1.08;;;20.60;98.00;;;;;;6189253;23;20020;-86
2022/09/13 13:20:50;;;;;;;0.52;0.17;;;20.60;97.80;;;;;;6210283;23;20020;-90
2022/09/13 13:23:34;;;;;;;2.67;0.30;;;20.70;97.70;;;;;;6185177;23;20065;-86
2022/09/13 13:26:08;;;;;;;2.90;0.20;;;20.70;97.80;;;;;;6211999;23;20323;-90
2022/09/13 13:29:03;;;;;;;3.70;0.20;;;20.60;97.70;;;;;;6185729;23;20350;-88
2022/09/13 13:31:29;;;;;;;1.88;0.22;;;20.60;97.20;;;;;;6185509;23;20017;-86